• Join FlightAware (Why Join?)
  • Login
  • US Flag 
03:45PM EDT


 

Airport Tracker/Info


-or-


 

Live Flight TrackerFlight Track Log ✈ AAL2384 ✈ 30-Apr-2013 ✈ KDFW - KORD

Flight Track Log - Related Links

Times and Time Zones

All times are in EDT time to prevent confusion due to time zone crossing. See the AAL2384 flight status page for this flight to view local times or setup timezone preferences in your user account.

Time Position Orientation Groundspeed Altitude Reporting Facility
EDT Latitude Longitude Course Direction KTS MPH feet Rate Location/Type
10:01PM 32.8833 -97.0333 357° North 154 177 1,900  Level Dallas / Fort Worth TRACON
10:02PM 32.8500 -97.0167 157° South 188 216 3,300 2,220 Climbing Dallas / Fort Worth TRACON
10:03PM 32.7833 -97.0000 168° South 210 242 6,000 2,700 Climbing Dallas / Fort Worth TRACON
10:04PM 32.8442 -96.8012 10° North  Level FlightAware Approximate
10:04PM 32.7667 -96.9333 107° East 231 266 8,700  Level Dallas / Fort Worth TRACON
10:05PM 32.9605 -96.8000 North  Level FlightAware Approximate
10:06PM 33.0768 -96.8007 357° North  Level FlightAware Approximate
10:06PM 32.8175 -96.8225 61° Northeast 244 281 12,600  Level Fort Worth Center
10:07PM 33.1930 -96.8090 357° North  Level FlightAware Approximate
10:07PM 32.9156 -96.8122 North 270 311 14,300  Level Fort Worth Center
10:08PM 33.0156 -96.8114 360° North 327 376 16,700 2,520 Climbing Fort Worth Center
10:09PM 33.1242 -96.8131 359° North 384 442 19,400 2,400 Climbing Fort Worth Center
10:10PM 33.2369 -96.8197 357° North 396 456 21,600 1,920 Climbing Fort Worth Center
10:12PM 33.4664 -96.8158 North 419 482 25,200 1,800 Climbing Fort Worth Center
10:13PM 33.5767 -96.7453 28° Northeast 435 501 27,000 1,560 Climbing Fort Worth Center
10:14PM 33.6828 -96.6769 28° Northeast 430 495 28,400 1,260 Climbing Fort Worth Center
10:15PM 33.7847 -96.6089 29° Northeast 443 510 29,600 1,440 Climbing Fort Worth Center
10:16PM 33.9053 -96.5300 29° Northeast 443 510 31,300 1,440 Climbing Fort Worth Center
10:18PM 34.1233 -96.3797 30° Northeast 449 517 34,000 1,200 Climbing Fort Worth Center
10:19PM 34.2269 -96.2958 34° Northeast 449 517 34,900 480 Climbing Fort Worth Center
10:20PM 34.3303 -96.2114 34° Northeast 444 511 35,000  Climbing Fort Worth Center
10:21PM 34.4339 -96.1244 35° Northeast 444 511 35,000  Level Fort Worth Center
10:22PM 34.5414 -96.0369 34° Northeast 449 517 35,000  Level Fort Worth Center
10:23PM 34.6428 -95.9547 34° Northeast 449 517 35,000  Level Fort Worth Center
10:24PM 34.7439 -95.8694 35° Northeast 449 517 35,000  Level Fort Worth Center
10:26PM 34.9700 -95.6692 36° Northeast 448 516 35,000  Level Kansas City Center
10:27PM 35.0681 -95.5758 38° Northeast 447 514 35,000  Level Kansas City Center
10:28PM 35.1672 -95.4833 37° Northeast 447 514 35,000  Level Kansas City Center
10:29PM 35.2642 -95.3900 38° Northeast 446 513 35,000  Level Kansas City Center
10:30PM 35.3625 -95.2978 37° Northeast 445 512 35,000  Level Kansas City Center
10:31PM 35.4619 -95.2022 38° Northeast 452 520 35,000  Level Kansas City Center
10:32PM 35.5617 -95.1078 38° Northeast 453 521 35,000  Level Kansas City Center
10:33PM 35.6589 -95.0139 38° Northeast 450 518 35,000  Level Kansas City Center
10:34PM 35.7756 -94.9039 37° Northeast 442 509 35,000  Level Memphis Center
10:35PM 35.8747 -94.8094 38° Northeast 437 503 35,000  Level Memphis Center
10:36PM 35.9700 -94.7144 39° Northeast 437 503 35,000  Level Memphis Center
10:38PM 36.1575 -94.5289 39° Northeast 437 503 35,000  Level Kansas City Center
10:39PM 36.2533 -94.4356 38° Northeast 438 504 35,000  Level Kansas City Center
10:40PM 36.3486 -94.3422 38° Northeast 438 504 35,000  Level Kansas City Center
10:41PM 36.4447 -94.2483 38° Northeast 439 505 35,000  Level Kansas City Center
10:42PM 36.5406 -94.1556 38° Northeast 438 504 35,000  Level Kansas City Center
10:43PM 36.6533 -94.0425 39° Northeast 435 501 35,000  Level Kansas City Center
10:44PM 36.7467 -93.9494 39° Northeast 432 497 35,000  Level Kansas City Center
10:45PM 36.8403 -93.8550 39° Northeast 431 496 35,000  Level Kansas City Center
10:46PM 36.9231 -93.7669 40° Northeast 426 490 35,000  Level Kansas City Center
10:47PM 37.0178 -93.6750 38° Northeast 428 493 35,000  Level Kansas City Center
10:49PM 37.1111 -93.5797 39° Northeast 431 496 35,000  Level Kansas City Center
10:50PM 37.2058 -93.4853 38° Northeast 432 497 35,000  Level Kansas City Center
10:51PM 37.3203 -93.3728 38° Northeast 433 498 35,000  Level Kansas City Center
10:52PM 37.4125 -93.2800 39° Northeast 428 493 35,000  Level Kansas City Center
10:54PM 37.6064 -93.1025 36° Northeast 429 494 35,000  Level Kansas City Center
10:55PM 37.7044 -93.0114 36° Northeast 433 498 35,000  Level Kansas City Center
10:56PM 37.8025 -92.9194 37° Northeast 436 502 35,000  Level Kansas City Center
10:57PM 37.8997 -92.8300 36° Northeast 431 496 35,000  Level Kansas City Center
10:58PM 38.0003 -92.7350 37° Northeast 432 497 35,000  Level Kansas City Center
10:59PM 38.0978 -92.6422 37° Northeast 435 501 35,000  Level Kansas City Center
11:00PM 38.1956 -92.5503 36° Northeast 436 502 35,000  Level Kansas City Center
11:01PM 38.2936 -92.4589 36° Northeast 433 498 35,000  Level Kansas City Center
11:02PM 38.3917 -92.3631 37° Northeast 439 505 35,000  Level Kansas City Center
11:03PM 38.4889 -92.2689 37° Northeast 436 502 35,000  Level Kansas City Center
11:04PM 38.5869 -92.1747 37° Northeast 437 503 35,000  Level Kansas City Center
11:05PM 38.6844 -92.0800 37° Northeast 437 503 35,000  Level Kansas City Center
11:06PM 38.7819 -91.9858 37° Northeast 437 503 35,000  Level Kansas City Center
11:07PM 38.8806 -91.8914 37° Northeast 439 505 35,000  Level Kansas City Center
11:08PM 38.9797 -91.7964 37° Northeast 442 509 35,000  Level Kansas City Center
11:09PM 39.0775 -91.7022 37° Northeast 439 505 35,000  Level Kansas City Center
11:10PM 39.1708 -91.6136 36° Northeast 442 509 35,000  Level Kansas City Center
11:11PM 39.2889 -91.4975 37° Northeast 445 512 35,000  Level Kansas City Center
11:12PM 39.3878 -91.4008 37° Northeast 445 512 35,000  Level Kansas City Center
11:13PM 39.4853 -91.3044 37° Northeast 443 510 35,000  Level Kansas City Center
11:14PM 39.5844 -91.2056 38° Northeast 445 512 35,000  Level Kansas City Center
11:15PM 39.6831 -91.1072 37° Northeast 445 512 35,000  Level Kansas City Center
11:16PM 39.7778 -91.0125 38° Northeast 443 510 35,000  Level Kansas City Center
11:17PM 39.8731 -90.9172 37° Northeast 442 509 35,000  Level Kansas City Center
11:18PM 39.9719 -90.8178 38° Northeast 447 514 35,000  Level Kansas City Center
11:19PM 40.0700 -90.7172 38° Northeast 447 514 35,000  Level Kansas City Center
11:19PM 40.1283 -90.6581 38° Northeast 447 514 35,000  Level Chicago Center
11:20PM 40.2272 -90.5572 38° Northeast 446 513 35,000  Level Chicago Center
11:21PM 40.3256 -90.4561 38° Northeast 448 516 35,000 -300 Level Chicago Center
11:23PM 40.4244 -90.3544 38° Northeast 450 518 34,500 -840 Descending Chicago Center
11:24PM 40.5244 -90.2533 38° Northeast 451 519 33,400 -1,440 Descending Chicago Center
11:25PM 40.6217 -90.1461 40° Northeast 452 520 31,600 -1,800 Descending Chicago Center
11:26PM 40.7228 -90.0414 38° Northeast 459 528 29,800 -1,800 Descending Chicago Center
11:27PM 40.8300 -89.9369 36° Northeast 470 541 28,000 -1,800 Descending Chicago Center
11:28PM 40.9300 -89.8317 38° Northeast 461 531 26,200 -1,920 Descending Chicago Center
11:29PM 41.0353 -89.7208 38° Northeast 450 518 24,200 -1,140 Descending Chicago Center
11:30PM 41.1333 -89.6183 38° Northeast 449 517 24,000 -600 Descending Chicago Center
11:31PM 41.2069 -89.4803 55° Northeast 460 529 23,000 -1,680 Descending Chicago Center
11:32PM 41.2656 -89.3336 62° Northeast 451 519 20,700 -2,340 Descending Chicago Center
11:33PM 41.3261 -89.1814 62° Northeast 430 495 18,400 -2,400 Descending Chicago Center
11:34PM 41.3783 -89.0472 63° Northeast 414 476 15,900 -2,340 Descending Chicago Center
11:35PM 41.4319 -88.9133 62° Northeast 410 472 13,700 -2,160 Descending Chicago Center
11:36PM 41.4811 -88.7889 62° Northeast 387 445 11,600 -1,380 Descending Chicago Center
11:37PM 41.5278 -88.6658 63° Northeast 376 433 11,000 -300 Descending Chicago Center
11:38PM 41.5747 -88.5456 62° Northeast 367 422 11,000  Level Chicago Center
11:39PM 41.6283 -88.4283 59° Northeast 370 426 11,000  Level Chicago Center
11:40PM 41.6928 -88.3206 51° Northeast 369 425 11,000 -240 Level Chicago Center
11:41PM 41.7494 -88.2233 52° Northeast 331 381 10,600 -960 Descending Chicago Center
11:42PM 41.8236 -88.1586 33° Northeast 323 372 9,100 -1,380 Descending Chicago Center
11:43PM 41.9000 -88.1000 30° Northeast 317 365 8,000 -600 Descending Chicago TRACON
11:44PM 41.9833 -88.0500 24° Northeast 320 368 8,000  Level Chicago TRACON
11:45PM 42.0667 -87.9833 31° Northeast 295 339 8,000 -360 Level Chicago TRACON
11:46PM 42.1167 -87.9333 37° Northeast 239 275 7,300 -1,200 Descending Chicago TRACON
11:47PM 42.1667 -87.8833 37° Northeast 222 255 5,700 -1,320 Descending Chicago TRACON
11:48PM 42.2167 -87.8333 37° Northeast 236 272 4,700 -900 Descending Chicago TRACON
11:49PM 42.2000 -87.7500 105° East 196 226 4,000 -600 Descending Chicago TRACON
11:51PM 42.0387 -87.8820 211° Southwest  Level FlightAware Approximate
11:55PM 42.0000 -87.8833 180° South 124 143 800  Level Chicago TRACON
11:58PM 41.9817 -87.9067 180° South  Level Estimated
11:59PM 41.9817 -87.9067 180° South  Level Estimated
12:00AM 41.9817 -87.9067 180° South  Level Estimated